• Join FlightAware (Why Join?)
  • Login
  • US Flag GB Flag 
06:52 EDT


 

Airport Tracker/Info


-or-


 

Live Flight TrackerFlight Track Log ✈ UAL4695 ✈ 15-Apr-2013 ✈ KEWR - KMHT

Flight Track Log - Related Links

Times and Time Zones

All times are in EDT time to prevent confusion due to time zone crossing. See the UAL4695 flight status page for this flight to view local times or setup timezone preferences in your user account.

Time Position Orientation Groundspeed Altitude Reporting Facility
EDT Latitude Longitude Course Direction KTS MPH feet Rate Location/Type
21:52 41.3229 -73.4772 37° Northeast  Level FlightAware Approximate
21:53 41.3756 -73.4159 45° Northeast  Level FlightAware Approximate
21:54 41.4284 -73.3549 37° Northeast  Level FlightAware Approximate
21:55 41.4789 -73.2939 21° North  Level FlightAware Approximate
21:56 41.5265 -73.2305 56° Northeast  Level FlightAware Approximate
21:57 41.5768 -73.1660 41° Northeast  Level FlightAware Approximate
21:58 41.6296 -73.1043 41° Northeast  Level FlightAware Approximate
21:59 41.6976 -73.1071 340° North  Level FlightAware Approximate
22:00 41.7661 -73.1237 354° North  Level FlightAware Approximate
22:01 41.8358 -73.1336 354° North  Level FlightAware Approximate
22:02 41.9055 -73.1436 354° North  Level FlightAware Approximate
22:03 41.9752 -73.1535 354° North  Level FlightAware Approximate
22:04 42.0449 -73.1636 354° North  Level FlightAware Approximate
22:05 42.1144 -73.1761 352° North  Level FlightAware Approximate
22:06 42.1838 -73.1899 352° North  Level FlightAware Approximate
22:07 42.2531 -73.2038 352° North  Level FlightAware Approximate
22:08 42.3225 -73.2176 352° North  Level FlightAware Approximate
22:09 42.3918 -73.2315 352° North  Level FlightAware Approximate
22:10 42.4612 -73.2454 352° North  Level FlightAware Approximate
22:11 42.5305 -73.2594 352° North  Level FlightAware Approximate
22:12 42.5805 -73.2251 66° East  Level FlightAware Approximate
22:13 42.6023 -73.1347 73° East  Level FlightAware Approximate
22:14 42.6233 -73.0438 73° East  Level FlightAware Approximate
22:15 42.6371 -72.9514 71° East  Level FlightAware Approximate
22:16 42.6597 -72.8612 71° East  Level FlightAware Approximate
22:17 42.6815 -72.7706 72° East  Level FlightAware Approximate
22:18 42.7028 -72.6797 72° East  Level FlightAware Approximate
22:19 42.7240 -72.5888 72° East  Level FlightAware Approximate
22:20 42.7452 -72.4978 72° East  Level FlightAware Approximate
22:21 42.7664 -72.4068 72° East  Level FlightAware Approximate
22:22 42.7833 -72.3148 90° East  Level FlightAware Approximate
22:23 42.7892 -72.2198 83° East  Level FlightAware Approximate
22:24 42.7977 -72.1249 83° East  Level FlightAware Approximate
22:25 42.8064 -72.0301 83° East  Level FlightAware Approximate
22:26 42.8150 -71.9353 83° East  Level FlightAware Approximate
22:27 42.8167 -71.8399 90° East  Level FlightAware Approximate
22:28 42.8251 -71.7455 78° East  Level FlightAware Approximate
22:29 42.8395 -71.6519 78° East  Level FlightAware Approximate
22:30 42.8500 -71.5578 90° East  Level FlightAware Approximate
22:31 42.8507 -71.4623 77° East  Level FlightAware Approximate
22:32 42.8663 -71.3690 77° East  Level FlightAware Approximate
22:33 42.9156 -71.4319 316° Northwest  Level FlightAware Approximate
22:34 42.9167 -71.4333 316° Northwest  Level FlightAware Approximate
22:35 42.9328 -71.4358 316° Northwest  Level Estimated
22:36 42.9328 -71.4358 316° Northwest  Level Estimated
22:37 42.9328 -71.4358 316° Northwest  Level Estimated
22:38 42.9328 -71.4358 316° Northwest  Level Estimated
22:39 42.9328 -71.4358 316° Northwest  Level Estimated
22:40 42.9328 -71.4358 316° Northwest  Level Estimated
22:41 42.9328 -71.4358 316° Northwest  Level Estimated
22:42 42.9328 -71.4358 316° Northwest  Level Estimated
22:43 42.9328 -71.4358 316° Northwest  Level Estimated
22:44 42.9328 -71.4358 316° Northwest  Level Estimated
22:45 42.9328 -71.4358 316° Northwest  Level Estimated
22:46 42.9328 -71.4358 316° Northwest  Level Estimated
22:47 42.9328 -71.4358 316° Northwest  Level Estimated
22:48 42.9328 -71.4358 316° Northwest  Level Estimated
22:49 42.9328 -71.4358 316° Northwest  Level Estimated